Milford, Utah
Current Conditions -  °F | °C
As of 12:52 PM on Wednesday 28 Jan 2015 (Local Time) from KMLF Reporting Station
Clear Clear  
Wind Chill: 11°   Ceiling: Unl
Heat Index: 11°   Visibility: 10mi
Dew Point:   Wind: 3mph
Humidity: 52%   Direction: NA
Pressure: 30.26"   Gusts: NA
Location:  38.4°N, 113.01°W
Report Text: KMLF 281952Z AUTO VRB03KT 10SM CLR 11/01 A3026 RMK AO2 SLP235 T01060011 TSNO
Loading
Personal Weather Stations






























Interactive Weather Map New forecast layout! Learn more

10-Day Weather Forecast

Advertisements
Track Severe Weather on mobile